sensor_id;sensor_type;location;lat;lon;timestamp;P1;durP1;ratioP1;P2;durP2;ratioP2
14876;SDS011;22152;48.158;17.118;2023-03-19T00:02:45;24.48;;;12.43;;
14876;SDS011;22152;48.158;17.118;2023-03-19T00:05:28;20.55;;;11.15;;
14876;SDS011;22152;48.158;17.118;2023-03-19T00:08:17;18.98;;;10.43;;
14876;SDS011;22152;48.158;17.118;2023-03-19T00:10:56;21.05;;;11.85;;
14876;SDS011;22152;48.158;17.118;2023-03-19T00:13:42;20.00;;;12.13;;
14876;SDS011;22152;48.158;17.118;2023-03-19T00:16:21;20.13;;;12.18;;
14876;SDS011;22152;48.158;17.118;2023-03-19T00:19:07;21.25;;;12.27;;
14876;SDS011;22152;48.158;17.118;2023-03-19T00:21:47;16.05;;;9.80;;
14876;SDS011;22152;48.158;17.118;2023-03-19T00:24:33;20.50;;;10.90;;
14876;SDS011;22152;48.158;17.118;2023-03-19T00:27:19;19.98;;;11.10;;
14876;SDS011;22152;48.158;17.118;2023-03-19T00:30:12;21.35;;;11.65;;
14876;SDS011;22152;48.158;17.118;2023-03-19T00:32:45;19.42;;;11.30;;
14876;SDS011;22152;48.158;17.118;2023-03-19T00:35:39;16.58;;;10.38;;
14876;SDS011;22152;48.158;17.118;2023-03-19T00:38:11;15.95;;;10.85;;
14876;SDS011;22152;48.158;17.118;2023-03-19T00:41:04;24.75;;;11.38;;
14876;SDS011;22152;48.158;17.118;2023-03-19T00:43:38;22.63;;;11.27;;
14876;SDS011;22152;48.158;17.118;2023-03-19T00:46:31;18.95;;;10.73;;
14876;SDS011;22152;48.158;17.118;2023-03-19T00:49:04;20.02;;;10.57;;
14876;SDS011;22152;48.158;17.118;2023-03-19T00:51:57;18.13;;;11.02;;
14876;SDS011;22152;48.158;17.118;2023-03-19T00:54:29;16.40;;;11.35;;
14876;SDS011;22152;48.158;17.118;2023-03-19T00:57:22;18.08;;;11.55;;
14876;SDS011;22152;48.158;17.118;2023-03-19T00:59:54;18.95;;;11.88;;
14876;SDS011;22152;48.158;17.118;2023-03-19T01:02:47;20.73;;;11.68;;
14876;SDS011;22152;48.158;17.118;2023-03-19T01:05:19;19.30;;;11.63;;
14876;SDS011;22152;48.158;17.118;2023-03-19T01:08:12;21.17;;;12.02;;
14876;SDS011;22152;48.158;17.118;2023-03-19T01:10:45;21.02;;;12.10;;
14876;SDS011;22152;48.158;17.118;2023-03-19T01:13:38;14.90;;;10.50;;
14876;SDS011;22152;48.158;17.118;2023-03-19T01:16:10;23.23;;;11.63;;
14876;SDS011;22152;48.158;17.118;2023-03-19T01:19:03;22.75;;;11.93;;
14876;SDS011;22152;48.158;17.118;2023-03-19T01:21:37;22.33;;;12.32;;
14876;SDS011;22152;48.158;17.118;2023-03-19T01:24:33;18.73;;;11.90;;
14876;SDS011;22152;48.158;17.118;2023-03-19T01:27:05;18.90;;;10.77;;
14876;SDS011;22152;48.158;17.118;2023-03-19T01:29:58;16.77;;;10.65;;
14876;SDS011;22152;48.158;17.118;2023-03-19T01:33:00;17.80;;;11.10;;
14876;SDS011;22152;48.158;17.118;2023-03-19T01:36:13;17.73;;;10.90;;
14876;SDS011;22152;48.158;17.118;2023-03-19T01:38:55;19.88;;;10.57;;
14876;SDS011;22152;48.158;17.118;2023-03-19T01:41:48;20.33;;;12.35;;
14876;SDS011;22152;48.158;17.118;2023-03-19T01:44:33;19.13;;;11.75;;
14876;SDS011;22152;48.158;17.118;2023-03-19T01:47:38;22.60;;;12.50;;
14876;SDS011;22152;48.158;17.118;2023-03-19T01:50:30;20.40;;;12.38;;
14876;SDS011;22152;48.158;17.118;2023-03-19T01:53:52;21.58;;;13.32;;
14876;SDS011;22152;48.158;17.118;2023-03-19T01:56:36;21.42;;;12.52;;
14876;SDS011;22152;48.158;17.118;2023-03-19T01:59:42;21.95;;;12.85;;
14876;SDS011;22152;48.158;17.118;2023-03-19T02:02:38;21.38;;;12.63;;
14876;SDS011;22152;48.158;17.118;2023-03-19T02:05:54;22.33;;;12.57;;
14876;SDS011;22152;48.158;17.118;2023-03-19T02:08:28;23.55;;;12.48;;
14876;SDS011;22152;48.158;17.118;2023-03-19T02:11:23;20.45;;;12.55;;
14876;SDS011;22152;48.158;17.118;2023-03-19T02:13:56;19.83;;;13.48;;
14876;SDS011;22152;48.158;17.118;2023-03-19T02:16:49;23.90;;;13.15;;
14876;SDS011;22152;48.158;17.118;2023-03-19T02:19:27;20.63;;;13.60;;
14876;SDS011;22152;48.158;17.118;2023-03-19T02:22:32;31.27;;;14.35;;
14876;SDS011;22152;48.158;17.118;2023-03-19T02:25:10;24.77;;;14.02;;
14876;SDS011;22152;48.158;17.118;2023-03-19T02:28:10;21.75;;;13.85;;
14876;SDS011;22152;48.158;17.118;2023-03-19T02:31:08;24.17;;;12.73;;
14876;SDS011;22152;48.158;17.118;2023-03-19T02:33:42;26.80;;;14.50;;
14876;SDS011;22152;48.158;17.118;2023-03-19T02:36:38;27.45;;;14.38;;
14876;SDS011;22152;48.158;17.118;2023-03-19T02:39:20;25.83;;;13.77;;
14876;SDS011;22152;48.158;17.118;2023-03-19T02:42:29;25.08;;;13.25;;
14876;SDS011;22152;48.158;17.118;2023-03-19T02:45:01;18.77;;;12.88;;
14876;SDS011;22152;48.158;17.118;2023-03-19T02:47:55;23.13;;;13.50;;
14876;SDS011;22152;48.158;17.118;2023-03-19T02:50:27;19.92;;;13.07;;
14876;SDS011;22152;48.158;17.118;2023-03-19T02:53:20;20.90;;;12.75;;
14876;SDS011;22152;48.158;17.118;2023-03-19T02:55:52;24.52;;;14.48;;
14876;SDS011;22152;48.158;17.118;2023-03-19T02:58:45;23.95;;;14.80;;
14876;SDS011;22152;48.158;17.118;2023-03-19T03:01:17;23.02;;;14.07;;
14876;SDS011;22152;48.158;17.118;2023-03-19T03:04:10;17.23;;;10.57;;
14876;SDS011;22152;48.158;17.118;2023-03-19T03:06:43;24.65;;;13.80;;
14876;SDS011;22152;48.158;17.118;2023-03-19T03:09:36;21.52;;;14.05;;
14876;SDS011;22152;48.158;17.118;2023-03-19T03:12:08;20.95;;;13.88;;
14876;SDS011;22152;48.158;17.118;2023-03-19T03:15:01;24.83;;;15.07;;
14876;SDS011;22152;48.158;17.118;2023-03-19T03:17:37;21.15;;;12.68;;
14876;SDS011;22152;48.158;17.118;2023-03-19T03:20:31;22.90;;;14.88;;
14876;SDS011;22152;48.158;17.118;2023-03-19T03:23:03;25.15;;;15.80;;
14876;SDS011;22152;48.158;17.118;2023-03-19T03:25:56;23.92;;;13.50;;
14876;SDS011;22152;48.158;17.118;2023-03-19T03:28:49;24.15;;;15.02;;
14876;SDS011;22152;48.158;17.118;2023-03-19T03:31:22;23.92;;;14.93;;
14876;SDS011;22152;48.158;17.118;2023-03-19T03:34:15;28.98;;;14.35;;
14876;SDS011;22152;48.158;17.118;2023-03-19T03:36:48;25.77;;;15.10;;
14876;SDS011;22152;48.158;17.118;2023-03-19T03:39:41;23.92;;;15.32;;
14876;SDS011;22152;48.158;17.118;2023-03-19T03:42:13;25.50;;;15.27;;
14876;SDS011;22152;48.158;17.118;2023-03-19T03:45:06;26.65;;;15.38;;
14876;SDS011;22152;48.158;17.118;2023-03-19T03:47:43;25.98;;;15.02;;
14876;SDS011;22152;48.158;17.118;2023-03-19T03:50:36;23.30;;;15.73;;
14876;SDS011;22152;48.158;17.118;2023-03-19T03:53:13;28.80;;;15.77;;
14876;SDS011;22152;48.158;17.118;2023-03-19T03:56:06;26.05;;;16.23;;
14876;SDS011;22152;48.158;17.118;2023-03-19T03:58:39;25.98;;;14.82;;
14876;SDS011;22152;48.158;17.118;2023-03-19T04:01:32;23.42;;;14.80;;
14876;SDS011;22152;48.158;17.118;2023-03-19T04:04:04;22.85;;;14.50;;
14876;SDS011;22152;48.158;17.118;2023-03-19T04:06:57;26.65;;;15.65;;
14876;SDS011;22152;48.158;17.118;2023-03-19T04:09:37;25.95;;;15.68;;
14876;SDS011;22152;48.158;17.118;2023-03-19T04:12:30;24.15;;;15.63;;
14876;SDS011;22152;48.158;17.118;2023-03-19T04:15:03;32.22;;;15.82;;
14876;SDS011;22152;48.158;17.118;2023-03-19T04:17:59;25.48;;;15.43;;
14876;SDS011;22152;48.158;17.118;2023-03-19T04:20:32;23.13;;;14.40;;
14876;SDS011;22152;48.158;17.118;2023-03-19T04:23:25;26.58;;;15.85;;
14876;SDS011;22152;48.158;17.118;2023-03-19T04:25:58;27.33;;;15.60;;
14876;SDS011;22152;48.158;17.118;2023-03-19T04:28:52;25.25;;;13.70;;
14876;SDS011;22152;48.158;17.118;2023-03-19T04:31:25;26.17;;;15.93;;
14876;SDS011;22152;48.158;17.118;2023-03-19T04:34:18;26.85;;;15.73;;
14876;SDS011;22152;48.158;17.118;2023-03-19T04:36:50;29.70;;;17.25;;
14876;SDS011;22152;48.158;17.118;2023-03-19T04:39:46;28.73;;;15.05;;
14876;SDS011;22152;48.158;17.118;2023-03-19T04:42:19;29.65;;;16.65;;
14876;SDS011;22152;48.158;17.118;2023-03-19T04:45:25;27.38;;;17.25;;
14876;SDS011;22152;48.158;17.118;2023-03-19T04:47:58;27.40;;;16.33;;
14876;SDS011;22152;48.158;17.118;2023-03-19T04:50:52;28.08;;;16.63;;
14876;SDS011;22152;48.158;17.118;2023-03-19T04:53:27;26.58;;;16.60;;
14876;SDS011;22152;48.158;17.118;2023-03-19T04:56:21;28.67;;;17.05;;
14876;SDS011;22152;48.158;17.118;2023-03-19T04:58:54;31.92;;;16.40;;
14876;SDS011;22152;48.158;17.118;2023-03-19T05:01:47;27.50;;;18.63;;
14876;SDS011;22152;48.158;17.118;2023-03-19T05:04:21;35.22;;;18.85;;
14876;SDS011;22152;48.158;17.118;2023-03-19T05:07:19;28.05;;;17.60;;
14876;SDS011;22152;48.158;17.118;2023-03-19T05:09:52;28.10;;;16.60;;
14876;SDS011;22152;48.158;17.118;2023-03-19T05:12:45;26.60;;;17.27;;
14876;SDS011;22152;48.158;17.118;2023-03-19T05:15:18;31.00;;;17.33;;
14876;SDS011;22152;48.158;17.118;2023-03-19T05:18:15;30.98;;;17.38;;
14876;SDS011;22152;48.158;17.118;2023-03-19T05:20:47;28.33;;;17.67;;
14876;SDS011;22152;48.158;17.118;2023-03-19T05:23:40;30.42;;;17.80;;
14876;SDS011;22152;48.158;17.118;2023-03-19T05:26:13;24.45;;;14.90;;
14876;SDS011;22152;48.158;17.118;2023-03-19T05:29:29;25.60;;;16.55;;
14876;SDS011;22152;48.158;17.118;2023-03-19T05:32:20;26.25;;;16.35;;
14876;SDS011;22152;48.158;17.118;2023-03-19T05:35:15;30.38;;;17.30;;
14876;SDS011;22152;48.158;17.118;2023-03-19T05:37:48;23.60;;;14.38;;
14876;SDS011;22152;48.158;17.118;2023-03-19T05:40:43;31.20;;;16.20;;
14876;SDS011;22152;48.158;17.118;2023-03-19T05:43:28;24.35;;;15.27;;
14876;SDS011;22152;48.158;17.118;2023-03-19T05:46:29;27.17;;;16.20;;
14876;SDS011;22152;48.158;17.118;2023-03-19T05:49:02;29.45;;;17.88;;
14876;SDS011;22152;48.158;17.118;2023-03-19T05:51:56;26.52;;;16.60;;
14876;SDS011;22152;48.158;17.118;2023-03-19T05:54:29;28.92;;;16.85;;
14876;SDS011;22152;48.158;17.118;2023-03-19T05:57:54;29.75;;;16.05;;
14876;SDS011;22152;48.158;17.118;2023-03-19T06:00:27;32.30;;;16.38;;
14876;SDS011;22152;48.158;17.118;2023-03-19T06:03:21;28.88;;;16.27;;
14876;SDS011;22152;48.158;17.118;2023-03-19T06:05:57;31.40;;;17.23;;
14876;SDS011;22152;48.158;17.118;2023-03-19T06:08:55;31.90;;;16.02;;
14876;SDS011;22152;48.158;17.118;2023-03-19T06:11:53;27.25;;;16.15;;
14876;SDS011;22152;48.158;17.118;2023-03-19T06:14:55;25.27;;;16.17;;
14876;SDS011;22152;48.158;17.118;2023-03-19T06:17:59;28.23;;;15.75;;
14876;SDS011;22152;48.158;17.118;2023-03-19T06:20:52;28.52;;;15.73;;
14876;SDS011;22152;48.158;17.118;2023-03-19T06:23:24;23.20;;;14.82;;
14876;SDS011;22152;48.158;17.118;2023-03-19T06:26:18;26.05;;;16.00;;
14876;SDS011;22152;48.158;17.118;2023-03-19T06:29:12;25.58;;;14.65;;
14876;SDS011;22152;48.158;17.118;2023-03-19T06:31:47;22.83;;;14.13;;
14876;SDS011;22152;48.158;17.118;2023-03-19T06:34:52;23.70;;;14.05;;
14876;SDS011;22152;48.158;17.118;2023-03-19T06:37:27;22.42;;;14.10;;
14876;SDS011;22152;48.158;17.118;2023-03-19T06:40:21;21.50;;;14.60;;
14876;SDS011;22152;48.158;17.118;2023-03-19T06:42:53;21.67;;;12.90;;
14876;SDS011;22152;48.158;17.118;2023-03-19T06:45:46;23.35;;;14.15;;
14876;SDS011;22152;48.158;17.118;2023-03-19T06:48:18;20.98;;;12.65;;
14876;SDS011;22152;48.158;17.118;2023-03-19T06:51:11;26.50;;;15.85;;
14876;SDS011;22152;48.158;17.118;2023-03-19T06:53:50;22.27;;;14.38;;
14876;SDS011;22152;48.158;17.118;2023-03-19T06:56:36;23.45;;;15.65;;
14876;SDS011;22152;48.158;17.118;2023-03-19T06:59:15;24.05;;;14.35;;
14876;SDS011;22152;48.158;17.118;2023-03-19T07:02:01;23.05;;;14.82;;
14876;SDS011;22152;48.158;17.118;2023-03-19T07:04:40;22.38;;;15.27;;
14876;SDS011;22152;48.158;17.118;2023-03-19T07:07:26;22.25;;;15.10;;
14876;SDS011;22152;48.158;17.118;2023-03-19T07:10:05;28.77;;;15.43;;
14876;SDS011;22152;48.158;17.118;2023-03-19T07:12:52;23.67;;;15.40;;
14876;SDS011;22152;48.158;17.118;2023-03-19T07:15:31;25.65;;;14.60;;
14876;SDS011;22152;48.158;17.118;2023-03-19T07:18:18;25.13;;;16.80;;
14876;SDS011;22152;48.158;17.118;2023-03-19T07:20:57;22.70;;;15.07;;
14876;SDS011;22152;48.158;17.118;2023-03-19T07:23:43;23.60;;;15.27;;
14876;SDS011;22152;48.158;17.118;2023-03-19T07:26:31;23.73;;;14.75;;
14876;SDS011;22152;48.158;17.118;2023-03-19T07:29:24;28.08;;;15.70;;
14876;SDS011;22152;48.158;17.118;2023-03-19T07:31:56;23.85;;;14.43;;
14876;SDS011;22152;48.158;17.118;2023-03-19T07:34:49;27.23;;;15.70;;
14876;SDS011;22152;48.158;17.118;2023-03-19T07:37:22;23.73;;;14.70;;
14876;SDS011;22152;48.158;17.118;2023-03-19T07:40:15;22.85;;;14.82;;
14876;SDS011;22152;48.158;17.118;2023-03-19T07:42:47;24.70;;;14.98;;
14876;SDS011;22152;48.158;17.118;2023-03-19T07:45:40;22.83;;;14.98;;
14876;SDS011;22152;48.158;17.118;2023-03-19T07:48:12;24.23;;;15.90;;
14876;SDS011;22152;48.158;17.118;2023-03-19T07:51:05;25.75;;;14.90;;
14876;SDS011;22152;48.158;17.118;2023-03-19T07:53:38;24.55;;;16.27;;
14876;SDS011;22152;48.158;17.118;2023-03-19T07:56:31;23.90;;;16.25;;
14876;SDS011;22152;48.158;17.118;2023-03-19T07:59:03;24.35;;;16.42;;
14876;SDS011;22152;48.158;17.118;2023-03-19T08:01:56;26.48;;;16.67;;
14876;SDS011;22152;48.158;17.118;2023-03-19T08:04:28;23.45;;;14.68;;
14876;SDS011;22152;48.158;17.118;2023-03-19T08:07:21;27.52;;;14.45;;
14876;SDS011;22152;48.158;17.118;2023-03-19T08:09:53;23.13;;;15.73;;
14876;SDS011;22152;48.158;17.118;2023-03-19T08:12:46;26.73;;;15.85;;
14876;SDS011;22152;48.158;17.118;2023-03-19T08:15:19;32.15;;;14.82;;
14876;SDS011;22152;48.158;17.118;2023-03-19T08:18:12;25.33;;;15.88;;
14876;SDS011;22152;48.158;17.118;2023-03-19T08:20:44;25.15;;;14.50;;
14876;SDS011;22152;48.158;17.118;2023-03-19T08:23:38;30.80;;;15.93;;
14876;SDS011;22152;48.158;17.118;2023-03-19T08:26:10;28.45;;;14.57;;
14876;SDS011;22152;48.158;17.118;2023-03-19T08:29:03;23.08;;;15.60;;
14876;SDS011;22152;48.158;17.118;2023-03-19T08:31:56;20.38;;;14.23;;
14876;SDS011;22152;48.158;17.118;2023-03-19T08:34:29;21.90;;;13.88;;
14876;SDS011;22152;48.158;17.118;2023-03-19T08:37:22;20.17;;;13.48;;
14876;SDS011;22152;48.158;17.118;2023-03-19T08:39:54;24.52;;;14.20;;
14876;SDS011;22152;48.158;17.118;2023-03-19T08:42:47;19.98;;;13.68;;
14876;SDS011;22152;48.158;17.118;2023-03-19T08:45:19;20.83;;;14.07;;
14876;SDS011;22152;48.158;17.118;2023-03-19T08:48:13;24.67;;;14.90;;
14876;SDS011;22152;48.158;17.118;2023-03-19T08:50:50;20.85;;;14.20;;
14876;SDS011;22152;48.158;17.118;2023-03-19T08:53:48;21.77;;;13.57;;
14876;SDS011;22152;48.158;17.118;2023-03-19T08:56:20;17.48;;;12.77;;
14876;SDS011;22152;48.158;17.118;2023-03-19T08:59:13;25.38;;;12.90;;
14876;SDS011;22152;48.158;17.118;2023-03-19T09:01:48;17.83;;;12.88;;
14876;SDS011;22152;48.158;17.118;2023-03-19T09:04:43;19.13;;;12.73;;
14876;SDS011;22152;48.158;17.118;2023-03-19T09:07:16;20.73;;;12.45;;
14876;SDS011;22152;48.158;17.118;2023-03-19T09:10:09;16.55;;;11.93;;
14876;SDS011;22152;48.158;17.118;2023-03-19T09:12:41;23.35;;;13.25;;
14876;SDS011;22152;48.158;17.118;2023-03-19T09:15:34;19.20;;;11.57;;
14876;SDS011;22152;48.158;17.118;2023-03-19T09:18:06;20.33;;;12.15;;
14876;SDS011;22152;48.158;17.118;2023-03-19T09:20:59;21.05;;;12.85;;
14876;SDS011;22152;48.158;17.118;2023-03-19T09:23:32;22.70;;;10.55;;
14876;SDS011;22152;48.158;17.118;2023-03-19T09:26:25;18.63;;;12.52;;
14876;SDS011;22152;48.158;17.118;2023-03-19T09:29:11;18.77;;;11.50;;
14876;SDS011;22152;48.158;17.118;2023-03-19T09:34:37;18.67;;;12.63;;
14876;SDS011;22152;48.158;17.118;2023-03-19T09:37:30;18.60;;;12.23;;
14876;SDS011;22152;48.158;17.118;2023-03-19T09:40:02;18.38;;;11.70;;
14876;SDS011;22152;48.158;17.118;2023-03-19T09:46:03;18.15;;;12.13;;
14876;SDS011;22152;48.158;17.118;2023-03-19T09:49:08;16.17;;;10.95;;
14876;SDS011;22152;48.158;17.118;2023-03-19T09:52:14;20.02;;;12.90;;
14876;SDS011;22152;48.158;17.118;2023-03-19T09:57:55;17.42;;;10.90;;
14876;SDS011;22152;48.158;17.118;2023-03-19T10:00:50;18.73;;;11.60;;
14876;SDS011;22152;48.158;17.118;2023-03-19T10:03:26;14.75;;;10.45;;
14876;SDS011;22152;48.158;17.118;2023-03-19T10:06:34;16.20;;;10.95;;
14876;SDS011;22152;48.158;17.118;2023-03-19T10:12:56;21.48;;;11.25;;
14876;SDS011;22152;48.158;17.118;2023-03-19T10:15:56;16.10;;;11.38;;
14876;SDS011;22152;48.158;17.118;2023-03-19T10:18:57;15.30;;;10.00;;
14876;SDS011;22152;48.158;17.118;2023-03-19T10:21:49;22.50;;;10.65;;
14876;SDS011;22152;48.158;17.118;2023-03-19T10:24:48;15.18;;;9.65;;
14876;SDS011;22152;48.158;17.118;2023-03-19T10:27:24;14.80;;;10.73;;
14876;SDS011;22152;48.158;17.118;2023-03-19T10:30:20;17.05;;;10.32;;
14876;SDS011;22152;48.158;17.118;2023-03-19T10:32:53;15.35;;;10.10;;
14876;SDS011;22152;48.158;17.118;2023-03-19T10:36:17;18.23;;;9.15;;
14876;SDS011;22152;48.158;17.118;2023-03-19T10:38:53;14.88;;;10.07;;
14876;SDS011;22152;48.158;17.118;2023-03-19T10:44:59;19.98;;;10.88;;
14876;SDS011;22152;48.158;17.118;2023-03-19T10:48:03;14.93;;;10.48;;
14876;SDS011;22152;48.158;17.118;2023-03-19T10:50:37;20.73;;;10.95;;
14876;SDS011;22152;48.158;17.118;2023-03-19T10:53:39;18.27;;;10.30;;
14876;SDS011;22152;48.158;17.118;2023-03-19T10:56:20;17.75;;;10.15;;
14876;SDS011;22152;48.158;17.118;2023-03-19T10:59:21;16.58;;;10.18;;
14876;SDS011;22152;48.158;17.118;2023-03-19T11:02:25;13.82;;;10.10;;
14876;SDS011;22152;48.158;17.118;2023-03-19T11:07:53;15.05;;;10.43;;
14876;SDS011;22152;48.158;17.118;2023-03-19T11:10:46;15.50;;;9.60;;
14876;SDS011;22152;48.158;17.118;2023-03-19T11:13:27;14.07;;;9.50;;
14876;SDS011;22152;48.158;17.118;2023-03-19T11:16:12;15.02;;;9.52;;
14876;SDS011;22152;48.158;17.118;2023-03-19T11:18:52;17.50;;;10.55;;
14876;SDS011;22152;48.158;17.118;2023-03-19T11:21:37;17.02;;;9.90;;
14876;SDS011;22152;48.158;17.118;2023-03-19T11:24:17;13.02;;;10.05;;
14876;SDS011;22152;48.158;17.118;2023-03-19T11:27:03;16.02;;;10.55;;
14876;SDS011;22152;48.158;17.118;2023-03-19T11:35:50;17.60;;;10.27;;
14876;SDS011;22152;48.158;17.118;2023-03-19T11:38:52;16.77;;;10.18;;
14876;SDS011;22152;48.158;17.118;2023-03-19T11:51:27;13.38;;;9.90;;
14876;SDS011;22152;48.158;17.118;2023-03-19T11:57:40;12.70;;;9.15;;
14876;SDS011;22152;48.158;17.118;2023-03-19T12:01:15;14.68;;;9.88;;
14876;SDS011;22152;48.158;17.118;2023-03-19T12:07:27;17.30;;;10.32;;
14876;SDS011;22152;48.158;17.118;2023-03-19T12:13:58;15.60;;;9.63;;
14876;SDS011;22152;48.158;17.118;2023-03-19T12:20:14;16.33;;;9.57;;
14876;SDS011;22152;48.158;17.118;2023-03-19T12:35:49;15.25;;;9.95;;
14876;SDS011;22152;48.158;17.118;2023-03-19T12:38:48;14.50;;;9.23;;
14876;SDS011;22152;48.158;17.118;2023-03-19T12:41:26;15.95;;;9.32;;
14876;SDS011;22152;48.158;17.118;2023-03-19T12:44:28;16.48;;;9.77;;
14876;SDS011;22152;48.158;17.118;2023-03-19T12:47:16;14.70;;;8.98;;
14876;SDS011;22152;48.158;17.118;2023-03-19T12:50:16;12.63;;;8.82;;
14876;SDS011;22152;48.158;17.118;2023-03-19T12:52:52;16.30;;;10.55;;
14876;SDS011;22152;48.158;17.118;2023-03-19T12:55:48;15.98;;;10.50;;
14876;SDS011;22152;48.158;17.118;2023-03-19T13:01:47;14.07;;;8.95;;
14876;SDS011;22152;48.158;17.118;2023-03-19T13:04:37;15.07;;;9.05;;
14876;SDS011;22152;48.158;17.118;2023-03-19T13:07:37;17.35;;;9.63;;
14876;SDS011;22152;48.158;17.118;2023-03-19T13:10:34;16.23;;;9.50;;
14876;SDS011;22152;48.158;17.118;2023-03-19T13:16:35;14.77;;;9.40;;
14876;SDS011;22152;48.158;17.118;2023-03-19T13:19:34;14.02;;;10.30;;
14876;SDS011;22152;48.158;17.118;2023-03-19T13:22:35;13.93;;;9.05;;
14876;SDS011;22152;48.158;17.118;2023-03-19T13:25:24;14.82;;;10.18;;
14876;SDS011;22152;48.158;17.118;2023-03-19T13:28:29;16.85;;;8.95;;
14876;SDS011;22152;48.158;17.118;2023-03-19T13:31:26;13.82;;;9.35;;
14876;SDS011;22152;48.158;17.118;2023-03-19T13:34:04;15.82;;;9.43;;
14876;SDS011;22152;48.158;17.118;2023-03-19T13:37:19;16.80;;;10.68;;
14876;SDS011;22152;48.158;17.118;2023-03-19T13:39:52;13.98;;;9.70;;
14876;SDS011;22152;48.158;17.118;2023-03-19T13:42:44;12.68;;;8.82;;
14876;SDS011;22152;48.158;17.118;2023-03-19T13:45:34;16.85;;;9.40;;
14876;SDS011;22152;48.158;17.118;2023-03-19T13:51:02;14.73;;;9.55;;
14876;SDS011;22152;48.158;17.118;2023-03-19T13:54:18;12.93;;;9.25;;
14876;SDS011;22152;48.158;17.118;2023-03-19T13:59:49;18.23;;;9.50;;
14876;SDS011;22152;48.158;17.118;2023-03-19T14:05:16;14.10;;;9.77;;
14876;SDS011;22152;48.158;17.118;2023-03-19T14:07:50;18.65;;;9.10;;
14876;SDS011;22152;48.158;17.118;2023-03-19T14:10:46;13.90;;;9.07;;
14876;SDS011;22152;48.158;17.118;2023-03-19T14:16:30;15.13;;;9.68;;
14876;SDS011;22152;48.158;17.118;2023-03-19T14:19:10;16.08;;;10.15;;
14876;SDS011;22152;48.158;17.118;2023-03-19T14:22:15;18.63;;;9.77;;
14876;SDS011;22152;48.158;17.118;2023-03-19T14:25:12;14.57;;;9.57;;
14876;SDS011;22152;48.158;17.118;2023-03-19T14:28:14;18.05;;;9.60;;
14876;SDS011;22152;48.158;17.118;2023-03-19T14:34:15;14.65;;;9.48;;
14876;SDS011;22152;48.158;17.118;2023-03-19T14:40:13;20.92;;;9.55;;
14876;SDS011;22152;48.158;17.118;2023-03-19T14:43:16;15.75;;;9.68;;
14876;SDS011;22152;48.158;17.118;2023-03-19T14:46:22;17.13;;;9.80;;
14876;SDS011;22152;48.158;17.118;2023-03-19T14:49:52;16.65;;;9.85;;
14876;SDS011;22152;48.158;17.118;2023-03-19T14:56:08;18.38;;;9.38;;
14876;SDS011;22152;48.158;17.118;2023-03-19T14:58:49;14.93;;;9.35;;
14876;SDS011;22152;48.158;17.118;2023-03-19T15:01:51;13.98;;;8.40;;
14876;SDS011;22152;48.158;17.118;2023-03-19T15:04:25;14.35;;;7.90;;
14876;SDS011;22152;48.158;17.118;2023-03-19T15:07:19;18.90;;;9.88;;
14876;SDS011;22152;48.158;17.118;2023-03-19T15:10:00;15.13;;;8.98;;
14876;SDS011;22152;48.158;17.118;2023-03-19T15:15:52;14.25;;;8.50;;
14876;SDS011;22152;48.158;17.118;2023-03-19T15:19:10;14.68;;;9.13;;
14876;SDS011;22152;48.158;17.118;2023-03-19T15:21:46;14.02;;;8.43;;
14876;SDS011;22152;48.158;17.118;2023-03-19T15:24:41;12.63;;;7.90;;
14876;SDS011;22152;48.158;17.118;2023-03-19T15:27:18;18.98;;;8.20;;
14876;SDS011;22152;48.158;17.118;2023-03-19T15:30:21;17.08;;;9.23;;
14876;SDS011;22152;48.158;17.118;2023-03-19T15:32:59;20.20;;;9.18;;
14876;SDS011;22152;48.158;17.118;2023-03-19T15:35:53;16.60;;;8.73;;
14876;SDS011;22152;48.158;17.118;2023-03-19T15:38:32;14.80;;;8.93;;
14876;SDS011;22152;48.158;17.118;2023-03-19T15:41:31;15.85;;;8.85;;
14876;SDS011;22152;48.158;17.118;2023-03-19T15:44:08;15.30;;;8.65;;
14876;SDS011;22152;48.158;17.118;2023-03-19T15:47:13;15.68;;;9.45;;
14876;SDS011;22152;48.158;17.118;2023-03-19T15:50:02;21.17;;;8.98;;
14876;SDS011;22152;48.158;17.118;2023-03-19T15:53:07;14.25;;;9.15;;
14876;SDS011;22152;48.158;17.118;2023-03-19T15:55:49;15.63;;;8.93;;
14876;SDS011;22152;48.158;17.118;2023-03-19T15:58:48;18.08;;;9.43;;
14876;SDS011;22152;48.158;17.118;2023-03-19T16:01:22;15.18;;;8.32;;
14876;SDS011;22152;48.158;17.118;2023-03-19T16:04:21;18.58;;;8.80;;
14876;SDS011;22152;48.158;17.118;2023-03-19T16:06:57;14.93;;;8.70;;
14876;SDS011;22152;48.158;17.118;2023-03-19T16:09:52;18.88;;;9.02;;
14876;SDS011;22152;48.158;17.118;2023-03-19T16:12:37;18.45;;;8.77;;
14876;SDS011;22152;48.158;17.118;2023-03-19T16:15:35;15.45;;;9.00;;
14876;SDS011;22152;48.158;17.118;2023-03-19T16:21:09;13.90;;;8.23;;
14876;SDS011;22152;48.158;17.118;2023-03-19T16:23:49;11.60;;;8.20;;
14876;SDS011;22152;48.158;17.118;2023-03-19T16:26:47;17.02;;;8.55;;
14876;SDS011;22152;48.158;17.118;2023-03-19T16:29:23;11.68;;;8.00;;
14876;SDS011;22152;48.158;17.118;2023-03-19T16:32:18;12.98;;;7.43;;
14876;SDS011;22152;48.158;17.118;2023-03-19T16:34:54;12.13;;;7.43;;
14876;SDS011;22152;48.158;17.118;2023-03-19T16:40:45;15.13;;;7.53;;
14876;SDS011;22152;48.158;17.118;2023-03-19T16:43:43;14.95;;;7.95;;
14876;SDS011;22152;48.158;17.118;2023-03-19T16:46:16;12.05;;;6.95;;
14876;SDS011;22152;48.158;17.118;2023-03-19T16:49:09;15.30;;;8.70;;
14876;SDS011;22152;48.158;17.118;2023-03-19T16:51:41;12.95;;;7.10;;
14876;SDS011;22152;48.158;17.118;2023-03-19T16:54:34;11.55;;;7.63;;
14876;SDS011;22152;48.158;17.118;2023-03-19T16:57:09;13.70;;;7.00;;
14876;SDS011;22152;48.158;17.118;2023-03-19T17:00:08;9.90;;;6.88;;
14876;SDS011;22152;48.158;17.118;2023-03-19T17:02:43;12.68;;;7.72;;
14876;SDS011;22152;48.158;17.118;2023-03-19T17:05:36;17.83;;;7.85;;
14876;SDS011;22152;48.158;17.118;2023-03-19T17:08:08;12.10;;;7.75;;
14876;SDS011;22152;48.158;17.118;2023-03-19T17:11:01;14.65;;;8.13;;
14876;SDS011;22152;48.158;17.118;2023-03-19T17:13:33;12.10;;;7.97;;
14876;SDS011;22152;48.158;17.118;2023-03-19T17:16:27;11.60;;;6.72;;
14876;SDS011;22152;48.158;17.118;2023-03-19T17:19:00;14.20;;;8.68;;
14876;SDS011;22152;48.158;17.118;2023-03-19T17:21:56;17.77;;;7.85;;
14876;SDS011;22152;48.158;17.118;2023-03-19T17:24:30;15.90;;;8.40;;
14876;SDS011;22152;48.158;17.118;2023-03-19T17:27:25;14.63;;;9.18;;
14876;SDS011;22152;48.158;17.118;2023-03-19T17:30:12;16.90;;;8.63;;
14876;SDS011;22152;48.158;17.118;2023-03-19T17:33:05;21.52;;;11.30;;
14876;SDS011;22152;48.158;17.118;2023-03-19T17:35:37;24.83;;;10.55;;
14876;SDS011;22152;48.158;17.118;2023-03-19T17:38:31;25.02;;;10.85;;
14876;SDS011;22152;48.158;17.118;2023-03-19T17:41:10;25.95;;;10.15;;
14876;SDS011;22152;48.158;17.118;2023-03-19T17:44:06;17.90;;;9.60;;
14876;SDS011;22152;48.158;17.118;2023-03-19T17:46:43;14.30;;;8.90;;
14876;SDS011;22152;48.158;17.118;2023-03-19T17:49:38;16.63;;;8.93;;